N23WS KEVV-KOWB
Flight info
| Callsign | N23WS |
|---|---|
| Flight time | 0h 19m |
| Altitude | 5000 |
| Route | DCT |
| Aircraft | PC12/L-VGDW/C |
Departure
| Time | 2026-05-06 05:38 |
|---|---|
| Airport | Evansville Regional Airport (KEVV) |
Arrival
| Time | 2026-05-06 05:58 |
|---|---|
| Airport | Owensboro Daviess County Airport (KOWB) |
| Time | Latitude | Longitude | Altitude | Speed | Heading |
|---|---|---|---|---|---|
| 2026-05-06 05:26 | 38.03646 | -87.53666 | 384 ft | 0 kts | 359° |
| 2026-05-06 05:33 | 38.03651 | -87.53666 | 384 ft | 3 kts | 6° |
| 2026-05-06 05:33 | 38.03660 | -87.53597 | 384 ft | 12 kts | 103° |
| 2026-05-06 05:34 | 38.03559 | -87.53571 | 384 ft | 19 kts | 181° |
| 2026-05-06 05:34 | 38.03417 | -87.53575 | 384 ft | 21 kts | 182° |
| 2026-05-06 05:34 | 38.03286 | -87.53587 | 384 ft | 16 kts | 184° |
| 2026-05-06 05:34 | 38.03198 | -87.53644 | 384 ft | 13 kts | 211° |
| 2026-05-06 05:35 | 38.03118 | -87.53703 | 384 ft | 12 kts | 210° |
| 2026-05-06 05:35 | 38.03038 | -87.53700 | 384 ft | 12 kts | 147° |
| 2026-05-06 05:35 | 38.02963 | -87.53666 | 384 ft | 11 kts | 181° |
| 2026-05-06 05:35 | 38.02892 | -87.53640 | 384 ft | 9 kts | 104° |
| 2026-05-06 05:36 | 38.02891 | -87.53625 | 384 ft | 0 kts | 86° |
| 2026-05-06 05:37 | 38.02891 | -87.53621 | 384 ft | 1 kts | 81° |
| 2026-05-06 05:37 | 38.02891 | -87.53559 | 384 ft | 14 kts | 90° |
| 2026-05-06 05:37 | 38.02915 | -87.53451 | 384 ft | 7 kts | 6° |
| 2026-05-06 05:37 | 38.02932 | -87.53451 | 384 ft | 8 kts | 0° |
| 2026-05-06 05:38 | 38.03257 | -87.53442 | 384 ft | 87 kts | 359° |
| 2026-05-06 05:38 | 38.03982 | -87.53436 | 625 ft | 114 kts | 359° |
| 2026-05-06 05:38 | 38.04794 | -87.53512 | 1219 ft | 123 kts | 343° |
| 2026-05-06 05:38 | 38.05368 | -87.54330 | 1794 ft | 144 kts | 290° |
| 2026-05-06 05:39 | 38.05054 | -87.55630 | 2293 ft | 175 kts | 231° |
| 2026-05-06 05:39 | 38.03905 | -87.56161 | 2748 ft | 189 kts | 176° |
| 2026-05-06 05:39 | 38.02637 | -87.55495 | 2953 ft | 201 kts | 132° |
| 2026-05-06 05:39 | 38.01911 | -87.54075 | 3475 ft | 194 kts | 112° |
| 2026-05-06 05:40 | 38.01292 | -87.52547 | 3900 ft | 196 kts | 116° |
| 2026-05-06 05:40 | 38.00570 | -87.51075 | 4258 ft | 202 kts | 124° |
| 2026-05-06 05:40 | 37.99714 | -87.49647 | 4695 ft | 203 kts | 130° |
| 2026-05-06 05:40 | 37.98785 | -87.48285 | 4962 ft | 210 kts | 135° |
| 2026-05-06 05:41 | 37.97741 | -87.46893 | 4977 ft | 226 kts | 135° |
| 2026-05-06 05:41 | 37.96636 | -87.45415 | 4978 ft | 236 kts | 136° |
| 2026-05-06 05:41 | 37.95472 | -87.43858 | 4968 ft | 243 kts | 136° |
| 2026-05-06 05:41 | 37.94221 | -87.42448 | 4948 ft | 242 kts | 155° |
| 2026-05-06 05:42 | 37.92657 | -87.41670 | 4970 ft | 241 kts | 164° |
| 2026-05-06 05:42 | 37.91056 | -87.40990 | 4963 ft | 242 kts | 165° |
| 2026-05-06 05:42 | 37.89451 | -87.40327 | 4984 ft | 243 kts | 165° |
| 2026-05-06 05:42 | 37.87819 | -87.39646 | 4966 ft | 244 kts | 165° |
| 2026-05-06 05:43 | 37.86198 | -87.38972 | 4966 ft | 244 kts | 166° |
| 2026-05-06 05:43 | 37.84574 | -87.38292 | 4966 ft | 244 kts | 166° |
| 2026-05-06 05:43 | 37.82946 | -87.37613 | 4959 ft | 245 kts | 166° |
| 2026-05-06 05:43 | 37.81341 | -87.36929 | 4960 ft | 245 kts | 166° |
| 2026-05-06 05:44 | 37.79749 | -87.36058 | 4961 ft | 252 kts | 147° |
| 2026-05-06 05:44 | 37.78701 | -87.34284 | 4968 ft | 258 kts | 118° |
| 2026-05-06 05:44 | 37.77972 | -87.32179 | 4957 ft | 259 kts | 113° |
| 2026-05-06 05:44 | 37.77351 | -87.30057 | 4954 ft | 259 kts | 110° |
| 2026-05-06 05:45 | 37.76788 | -87.27881 | 4947 ft | 257 kts | 109° |
| 2026-05-06 05:45 | 37.76286 | -87.25777 | 4945 ft | 244 kts | 108° |
| 2026-05-06 05:45 | 37.75837 | -87.23768 | 4951 ft | 232 kts | 109° |
| 2026-05-06 05:45 | 37.75399 | -87.21840 | 4962 ft | 222 kts | 116° |
| 2026-05-06 05:46 | 37.74649 | -87.20182 | 4948 ft | 217 kts | 111° |
| 2026-05-06 05:46 | 37.74035 | -87.18500 | 4967 ft | 208 kts | 132° |
| 2026-05-06 05:46 | 37.73091 | -87.17117 | 4955 ft | 202 kts | 146° |
| 2026-05-06 05:46 | 37.71909 | -87.16269 | 4956 ft | 191 kts | 169° |
| 2026-05-06 05:47 | 37.70642 | -87.16185 | 4957 ft | 181 kts | 191° |
| 2026-05-06 05:47 | 37.69371 | -87.16312 | 4940 ft | 181 kts | 191° |
| 2026-05-06 05:47 | 37.68118 | -87.16426 | 4937 ft | 181 kts | 191° |
| 2026-05-06 05:47 | 37.66849 | -87.16518 | 4973 ft | 181 kts | 191° |
| 2026-05-06 05:48 | 37.65584 | -87.16615 | 4964 ft | 180 kts | 190° |
| 2026-05-06 05:48 | 37.64341 | -87.16680 | 4935 ft | 173 kts | 191° |
| 2026-05-06 05:48 | 37.63156 | -87.16738 | 4935 ft | 168 kts | 191° |
| 2026-05-06 05:48 | 37.61996 | -87.16785 | 4853 ft | 168 kts | 189° |
| 2026-05-06 05:49 | 37.60778 | -87.16844 | 4565 ft | 181 kts | 188° |
| 2026-05-06 05:49 | 37.59492 | -87.16893 | 4176 ft | 186 kts | 188° |
| 2026-05-06 05:49 | 37.58186 | -87.16943 | 3800 ft | 191 kts | 186° |
| 2026-05-06 05:49 | 37.56836 | -87.16997 | 3394 ft | 194 kts | 189° |
| 2026-05-06 05:50 | 37.55667 | -87.17699 | 3005 ft | 187 kts | 221° |
| 2026-05-06 05:50 | 37.54662 | -87.18745 | 2638 ft | 189 kts | 227° |
| 2026-05-06 05:50 | 37.53659 | -87.19830 | 2261 ft | 191 kts | 227° |
| 2026-05-06 05:50 | 37.52577 | -87.20798 | 2060 ft | 191 kts | 203° |
| 2026-05-06 05:51 | 37.51297 | -87.20736 | 2051 ft | 182 kts | 155° |
| 2026-05-06 05:51 | 37.50423 | -87.19693 | 2070 ft | 176 kts | 108° |
| 2026-05-06 05:51 | 37.50347 | -87.18163 | 2065 ft | 183 kts | 64° |
| 2026-05-06 05:51 | 37.51193 | -87.17046 | 2062 ft | 180 kts | 19° |
| 2026-05-06 05:52 | 37.52434 | -87.16843 | 2044 ft | 183 kts | 359° |
| 2026-05-06 05:52 | 37.53734 | -87.16862 | 2037 ft | 187 kts | 358° |
| 2026-05-06 05:52 | 37.55025 | -87.16871 | 2043 ft | 185 kts | 356° |
| 2026-05-06 05:52 | 37.56330 | -87.16873 | 2001 ft | 187 kts | 357° |
| 2026-05-06 05:53 | 37.57634 | -87.16876 | 1822 ft | 189 kts | 359° |
| 2026-05-06 05:53 | 37.58949 | -87.16859 | 1615 ft | 190 kts | 360° |
| 2026-05-06 05:53 | 37.60286 | -87.16856 | 1419 ft | 190 kts | 359° |
| 2026-05-06 05:53 | 37.61616 | -87.16832 | 1223 ft | 191 kts | 359° |
| 2026-05-06 05:54 | 37.62877 | -87.16808 | 1147 ft | 172 kts | 1° |
| 2026-05-06 05:54 | 37.63987 | -87.16744 | 1171 ft | 146 kts | 2° |
| 2026-05-06 05:54 | 37.64909 | -87.16616 | 1174 ft | 118 kts | 5° |
| 2026-05-06 05:54 | 37.65619 | -87.16505 | 1127 ft | 93 kts | 1° |
| 2026-05-06 05:55 | 37.66204 | -87.16430 | 1235 ft | 72 kts | 0° |
| 2026-05-06 05:55 | 37.66684 | -87.16398 | 1283 ft | 72 kts | 355° |
| 2026-05-06 05:55 | 37.67216 | -87.16394 | 1417 ft | 81 kts | 355° |
| 2026-05-06 05:55 | 37.67837 | -87.16438 | 1405 ft | 88 kts | 352° |
| 2026-05-06 05:56 | 37.68388 | -87.16484 | 1318 ft | 70 kts | 358° |
| 2026-05-06 05:56 | 37.68862 | -87.16493 | 1262 ft | 74 kts | 353° |
| 2026-05-06 05:56 | 37.69438 | -87.16538 | 1154 ft | 88 kts | 355° |
| 2026-05-06 05:56 | 37.70008 | -87.16541 | 1003 ft | 76 kts | 356° |
| 2026-05-06 05:57 | 37.70533 | -87.16571 | 880 ft | 77 kts | 356° |
| 2026-05-06 05:57 | 37.71044 | -87.16594 | 779 ft | 69 kts | 354° |
| 2026-05-06 05:57 | 37.71551 | -87.16618 | 664 ft | 76 kts | 355° |
| 2026-05-06 05:57 | 37.72104 | -87.16647 | 565 ft | 81 kts | 356° |
| 2026-05-06 05:58 | 37.72655 | -87.16670 | 450 ft | 69 kts | 357° |
| 2026-05-06 05:58 | 37.73064 | -87.16688 | 400 ft | 43 kts | 356° |
| 2026-05-06 05:58 | 37.73303 | -87.16699 | 401 ft | 29 kts | 359° |
| 2026-05-06 05:58 | 37.73476 | -87.16708 | 401 ft | 20 kts | 359° |
| 2026-05-06 05:59 | 37.73556 | -87.16644 | 401 ft | 13 kts | 54° |